ベレン の空港の天気 - METARとTAF

ベレン国際空港 ( SBBE / BEL ) - ブラジル パラー州ベレン
飛行場実況気象(Metar)
観測時間07/04 22:00 AMT (07/05 02:00 UTC)
風向・風速東南東 2m/s
視程10km以上
天気現象
なし
気温24℃
湿度94%
気圧1014hPa
METARSBBE 050200Z 11003KT CAVOK 24/23 Q1014
過去の天気等 Google飛行場航空写真 Wunderground天気予報

過去48時間のMETAR

飛行場予報(TAF)
発表時間: 7/04 17:00 AMT (7/04 21:00 UTC)
予報対象時間: 4日20時 AMT ~ 5日20時 AMT
風向・風速東 4m/s
視程8000m
全天の8割程度の雲 雲底高度 760m
少しの塔状積雲 雲底高度 1070m
4日20時 AMT から 確率 30% で
視程4500m
天気現象雷雨
全天の4割程度の雲 雲底高度 1220m
少しの積乱雲 雲底高度 1370m
5日2時 AMT ~ 5日4時 AMT に徐々に
風向・風速南南東 3m/s
視程8000m
全天の8割程度の雲 雲底高度 300m
5日6時 AMT ~ 5日8時 AMT に徐々に
風向・風速東 5m/s
視程10km以上
全天の4割程度の雲 雲底高度 910m
5日14時 AMT ~ 5日19時 AMT に一時的に
風向・風速北 5m/s
視程4000m
天気現象雷雨
全天の8割程度の雲 雲底高度 370m
少しの積乱雲 雲底高度 910m
TAF SBBE 042100Z 0500/0524 10008KT 8000 BKN025 FEW035TCU TN24/0509Z TX31/0517Z
PROB30 0500/0502 4500 TSRA SCT040 FEW045CB
BECMG 0506/0508 16005KT 8000 BKN010
BECMG 0510/0512 10010KT 9999 SCT030
TEMPO 0518/0523 35010KT 4000 TSRA BKN012 FEW030CB RMK PGU